sensor_id;sensor_type;location;lat;lon;timestamp;P1;durP1;ratioP1;P2;durP2;ratioP2
18793;SDS011;29610;49.022;12.114;2024-03-07T00:01:15;37.93;;;20.73;;
18793;SDS011;29610;49.022;12.114;2024-03-07T00:03:43;42.50;;;21.10;;
18793;SDS011;29610;49.022;12.114;2024-03-07T00:06:11;37.30;;;18.93;;
18793;SDS011;29610;49.022;12.114;2024-03-07T00:08:41;42.00;;;19.40;;
18793;SDS011;29610;49.022;12.114;2024-03-07T00:11:09;40.47;;;20.03;;
18793;SDS011;29610;49.022;12.114;2024-03-07T00:13:37;41.27;;;19.87;;
18793;SDS011;29610;49.022;12.114;2024-03-07T00:16:06;43.27;;;21.60;;
18793;SDS011;29610;49.022;12.114;2024-03-07T00:18:35;39.30;;;19.77;;
18793;SDS011;29610;49.022;12.114;2024-03-07T00:21:03;40.30;;;19.43;;
18793;SDS011;29610;49.022;12.114;2024-03-07T00:23:32;47.43;;;20.17;;
18793;SDS011;29610;49.022;12.114;2024-03-07T00:26:03;37.63;;;19.90;;
18793;SDS011;29610;49.022;12.114;2024-03-07T00:28:32;39.30;;;20.83;;
18793;SDS011;29610;49.022;12.114;2024-03-07T00:31:05;37.63;;;19.27;;
18793;SDS011;29610;49.022;12.114;2024-03-07T00:33:35;41.30;;;21.10;;
18793;SDS011;29610;49.022;12.114;2024-03-07T00:36:23;34.97;;;19.30;;
18793;SDS011;29610;49.022;12.114;2024-03-07T00:38:52;41.10;;;20.80;;
18793;SDS011;29610;49.022;12.114;2024-03-07T00:41:22;36.03;;;18.50;;
18793;SDS011;29610;49.022;12.114;2024-03-07T00:43:49;39.63;;;20.93;;
18793;SDS011;29610;49.022;12.114;2024-03-07T00:46:18;35.20;;;18.90;;
18793;SDS011;29610;49.022;12.114;2024-03-07T00:48:46;38.30;;;18.60;;
18793;SDS011;29610;49.022;12.114;2024-03-07T00:51:14;36.80;;;18.73;;
18793;SDS011;29610;49.022;12.114;2024-03-07T00:53:43;42.33;;;19.63;;
18793;SDS011;29610;49.022;12.114;2024-03-07T00:56:11;43.67;;;20.50;;
18793;SDS011;29610;49.022;12.114;2024-03-07T00:58:41;37.33;;;20.50;;
18793;SDS011;29610;49.022;12.114;2024-03-07T01:01:09;39.50;;;20.53;;
18793;SDS011;29610;49.022;12.114;2024-03-07T01:03:38;42.47;;;20.73;;
18793;SDS011;29610;49.022;12.114;2024-03-07T01:06:07;40.63;;;19.83;;
18793;SDS011;29610;49.022;12.114;2024-03-07T01:08:37;39.30;;;19.73;;
18793;SDS011;29610;49.022;12.114;2024-03-07T01:11:05;38.53;;;21.00;;
18793;SDS011;29610;49.022;12.114;2024-03-07T01:13:36;37.90;;;20.33;;
18793;SDS011;29610;49.022;12.114;2024-03-07T01:16:06;41.80;;;22.00;;
18793;SDS011;29610;49.022;12.114;2024-03-07T01:18:35;38.60;;;20.00;;
18793;SDS011;29610;49.022;12.114;2024-03-07T01:21:05;41.43;;;21.67;;
18793;SDS011;29610;49.022;12.114;2024-03-07T01:23:34;40.10;;;21.00;;
18793;SDS011;29610;49.022;12.114;2024-03-07T01:26:03;42.00;;;21.60;;
18793;SDS011;29610;49.022;12.114;2024-03-07T01:28:31;40.50;;;20.57;;
18793;SDS011;29610;49.022;12.114;2024-03-07T01:30:59;40.17;;;21.80;;
18793;SDS011;29610;49.022;12.114;2024-03-07T01:33:30;42.23;;;20.27;;
18793;SDS011;29610;49.022;12.114;2024-03-07T01:35:58;39.60;;;21.13;;
18793;SDS011;29610;49.022;12.114;2024-03-07T01:38:27;42.97;;;21.07;;
18793;SDS011;29610;49.022;12.114;2024-03-07T01:40:55;44.00;;;20.47;;
18793;SDS011;29610;49.022;12.114;2024-03-07T01:43:23;37.50;;;19.90;;
18793;SDS011;29610;49.022;12.114;2024-03-07T01:45:52;45.80;;;22.17;;
18793;SDS011;29610;49.022;12.114;2024-03-07T01:48:25;42.73;;;21.43;;
18793;SDS011;29610;49.022;12.114;2024-03-07T01:50:56;43.37;;;22.90;;
18793;SDS011;29610;49.022;12.114;2024-03-07T01:53:26;47.43;;;23.73;;
18793;SDS011;29610;49.022;12.114;2024-03-07T01:55:58;42.57;;;21.10;;
18793;SDS011;29610;49.022;12.114;2024-03-07T01:58:29;43.13;;;20.57;;
18793;SDS011;29610;49.022;12.114;2024-03-07T02:00:58;39.03;;;20.77;;
18793;SDS011;29610;49.022;12.114;2024-03-07T02:03:27;47.43;;;21.80;;
18793;SDS011;29610;49.022;12.114;2024-03-07T02:05:56;44.83;;;22.13;;
18793;SDS011;29610;49.022;12.114;2024-03-07T02:08:25;41.07;;;21.07;;
18793;SDS011;29610;49.022;12.114;2024-03-07T02:10:53;44.13;;;21.70;;
18793;SDS011;29610;49.022;12.114;2024-03-07T02:13:22;38.57;;;22.13;;
18793;SDS011;29610;49.022;12.114;2024-03-07T02:15:50;43.40;;;22.10;;
18793;SDS011;29610;49.022;12.114;2024-03-07T02:18:18;47.50;;;20.57;;
18793;SDS011;29610;49.022;12.114;2024-03-07T02:20:49;46.60;;;23.50;;
18793;SDS011;29610;49.022;12.114;2024-03-07T02:23:18;38.03;;;21.37;;
18793;SDS011;29610;49.022;12.114;2024-03-07T02:25:46;41.67;;;20.27;;
18793;SDS011;29610;49.022;12.114;2024-03-07T02:28:14;45.30;;;21.77;;
18793;SDS011;29610;49.022;12.114;2024-03-07T02:30:43;46.53;;;21.03;;
18793;SDS011;29610;49.022;12.114;2024-03-07T02:33:12;45.00;;;20.73;;
18793;SDS011;29610;49.022;12.114;2024-03-07T02:35:41;43.37;;;21.10;;
18793;SDS011;29610;49.022;12.114;2024-03-07T02:38:11;42.40;;;22.07;;
18793;SDS011;29610;49.022;12.114;2024-03-07T02:40:40;45.50;;;22.57;;
18793;SDS011;29610;49.022;12.114;2024-03-07T02:43:08;42.43;;;21.10;;
18793;SDS011;29610;49.022;12.114;2024-03-07T02:45:36;49.20;;;20.90;;
18793;SDS011;29610;49.022;12.114;2024-03-07T02:48:05;40.50;;;21.90;;
18793;SDS011;29610;49.022;12.114;2024-03-07T02:50:36;46.70;;;21.87;;
18793;SDS011;29610;49.022;12.114;2024-03-07T02:53:05;40.77;;;21.67;;
18793;SDS011;29610;49.022;12.114;2024-03-07T02:55:34;41.73;;;20.50;;
18793;SDS011;29610;49.022;12.114;2024-03-07T02:58:03;44.47;;;21.87;;
18793;SDS011;29610;49.022;12.114;2024-03-07T03:00:31;45.17;;;23.83;;
18793;SDS011;29610;49.022;12.114;2024-03-07T03:03:01;48.93;;;23.00;;
18793;SDS011;29610;49.022;12.114;2024-03-07T03:05:29;42.10;;;21.17;;
18793;SDS011;29610;49.022;12.114;2024-03-07T03:07:57;50.30;;;23.67;;
18793;SDS011;29610;49.022;12.114;2024-03-07T03:10:26;45.73;;;22.80;;
18793;SDS011;29610;49.022;12.114;2024-03-07T03:12:58;43.80;;;22.47;;
18793;SDS011;29610;49.022;12.114;2024-03-07T03:15:28;48.87;;;23.40;;
18793;SDS011;29610;49.022;12.114;2024-03-07T03:17:57;50.70;;;23.90;;
18793;SDS011;29610;49.022;12.114;2024-03-07T03:20:27;46.73;;;24.00;;
18793;SDS011;29610;49.022;12.114;2024-03-07T03:23:02;45.77;;;22.73;;
18793;SDS011;29610;49.022;12.114;2024-03-07T03:25:46;45.87;;;22.43;;
18793;SDS011;29610;49.022;12.114;2024-03-07T03:28:17;47.53;;;22.13;;
18793;SDS011;29610;49.022;12.114;2024-03-07T03:30:47;48.67;;;23.93;;
18793;SDS011;29610;49.022;12.114;2024-03-07T03:33:17;52.57;;;25.07;;
18793;SDS011;29610;49.022;12.114;2024-03-07T03:35:45;48.63;;;23.63;;
18793;SDS011;29610;49.022;12.114;2024-03-07T03:38:14;46.17;;;24.70;;
18793;SDS011;29610;49.022;12.114;2024-03-07T03:40:44;59.23;;;26.27;;
18793;SDS011;29610;49.022;12.114;2024-03-07T03:43:13;51.40;;;24.17;;
18793;SDS011;29610;49.022;12.114;2024-03-07T03:45:43;51.57;;;23.97;;
18793;SDS011;29610;49.022;12.114;2024-03-07T03:48:11;58.40;;;24.80;;
18793;SDS011;29610;49.022;12.114;2024-03-07T03:50:40;50.97;;;24.87;;
18793;SDS011;29610;49.022;12.114;2024-03-07T03:53:08;50.13;;;25.30;;
18793;SDS011;29610;49.022;12.114;2024-03-07T03:55:36;50.07;;;25.23;;
18793;SDS011;29610;49.022;12.114;2024-03-07T03:58:05;46.67;;;23.50;;
18793;SDS011;29610;49.022;12.114;2024-03-07T04:00:33;50.97;;;23.70;;
18793;SDS011;29610;49.022;12.114;2024-03-07T04:03:03;46.40;;;23.47;;
18793;SDS011;29610;49.022;12.114;2024-03-07T04:05:31;48.70;;;21.90;;
18793;SDS011;29610;49.022;12.114;2024-03-07T04:08:00;49.30;;;23.90;;
18793;SDS011;29610;49.022;12.114;2024-03-07T04:10:28;47.37;;;21.40;;
18793;SDS011;29610;49.022;12.114;2024-03-07T04:12:57;51.13;;;23.00;;
18793;SDS011;29610;49.022;12.114;2024-03-07T04:15:25;50.63;;;22.60;;
18793;SDS011;29610;49.022;12.114;2024-03-07T04:17:59;47.83;;;23.13;;
18793;SDS011;29610;49.022;12.114;2024-03-07T04:20:29;41.00;;;22.33;;
18793;SDS011;29610;49.022;12.114;2024-03-07T04:22:57;46.67;;;22.43;;
18793;SDS011;29610;49.022;12.114;2024-03-07T04:25:25;40.20;;;20.57;;
18793;SDS011;29610;49.022;12.114;2024-03-07T04:27:54;46.37;;;22.20;;
18793;SDS011;29610;49.022;12.114;2024-03-07T04:30:23;46.57;;;22.03;;
18793;SDS011;29610;49.022;12.114;2024-03-07T04:32:51;42.83;;;21.30;;
18793;SDS011;29610;49.022;12.114;2024-03-07T04:35:19;49.93;;;22.90;;
18793;SDS011;29610;49.022;12.114;2024-03-07T04:37:49;42.90;;;22.70;;
18793;SDS011;29610;49.022;12.114;2024-03-07T04:40:19;46.43;;;21.73;;
18793;SDS011;29610;49.022;12.114;2024-03-07T04:42:48;42.10;;;20.60;;
18793;SDS011;29610;49.022;12.114;2024-03-07T04:45:17;44.23;;;23.43;;
18793;SDS011;29610;49.022;12.114;2024-03-07T04:47:47;49.50;;;21.73;;
18793;SDS011;29610;49.022;12.114;2024-03-07T04:50:16;44.30;;;21.93;;
18793;SDS011;29610;49.022;12.114;2024-03-07T04:52:46;42.53;;;22.50;;
18793;SDS011;29610;49.022;12.114;2024-03-07T04:55:17;44.60;;;20.83;;
18793;SDS011;29610;49.022;12.114;2024-03-07T04:57:46;52.53;;;24.70;;
18793;SDS011;29610;49.022;12.114;2024-03-07T05:00:14;51.70;;;22.73;;
18793;SDS011;29610;49.022;12.114;2024-03-07T05:02:46;41.60;;;21.87;;
18793;SDS011;29610;49.022;12.114;2024-03-07T05:05:17;40.57;;;22.33;;
18793;SDS011;29610;49.022;12.114;2024-03-07T05:07:49;48.90;;;22.43;;
18793;SDS011;29610;49.022;12.114;2024-03-07T05:10:19;38.27;;;20.97;;
18793;SDS011;29610;49.022;12.114;2024-03-07T05:12:48;43.73;;;22.80;;
18793;SDS011;29610;49.022;12.114;2024-03-07T05:15:16;45.40;;;22.87;;
18793;SDS011;29610;49.022;12.114;2024-03-07T05:17:45;54.53;;;24.73;;
18793;SDS011;29610;49.022;12.114;2024-03-07T05:20:13;43.40;;;19.90;;
18793;SDS011;29610;49.022;12.114;2024-03-07T05:22:42;49.10;;;24.50;;
18793;SDS011;29610;49.022;12.114;2024-03-07T05:25:16;51.37;;;23.47;;
18793;SDS011;29610;49.022;12.114;2024-03-07T05:27:47;53.60;;;24.37;;
18793;SDS011;29610;49.022;12.114;2024-03-07T05:30:16;45.03;;;22.50;;
18793;SDS011;29610;49.022;12.114;2024-03-07T05:32:44;48.70;;;24.13;;
18793;SDS011;29610;49.022;12.114;2024-03-07T05:35:14;52.80;;;25.07;;
18793;SDS011;29610;49.022;12.114;2024-03-07T05:37:47;54.97;;;23.63;;
18793;SDS011;29610;49.022;12.114;2024-03-07T05:40:17;44.03;;;22.43;;
18793;SDS011;29610;49.022;12.114;2024-03-07T05:42:46;48.80;;;22.63;;
18793;SDS011;29610;49.022;12.114;2024-03-07T05:45:15;51.27;;;24.47;;
18793;SDS011;29610;49.022;12.114;2024-03-07T05:47:44;53.50;;;25.57;;
18793;SDS011;29610;49.022;12.114;2024-03-07T05:50:14;42.23;;;20.07;;
18793;SDS011;29610;49.022;12.114;2024-03-07T05:52:43;47.40;;;22.80;;
18793;SDS011;29610;49.022;12.114;2024-03-07T05:55:11;54.67;;;23.77;;
18793;SDS011;29610;49.022;12.114;2024-03-07T05:57:40;49.37;;;23.23;;
18793;SDS011;29610;49.022;12.114;2024-03-07T06:00:12;47.23;;;23.40;;
18793;SDS011;29610;49.022;12.114;2024-03-07T06:02:42;44.30;;;21.43;;
18793;SDS011;29610;49.022;12.114;2024-03-07T06:05:10;45.67;;;23.20;;
18793;SDS011;29610;49.022;12.114;2024-03-07T06:07:42;48.93;;;22.57;;
18793;SDS011;29610;49.022;12.114;2024-03-07T06:10:12;49.43;;;22.90;;
18793;SDS011;29610;49.022;12.114;2024-03-07T06:12:42;43.20;;;22.27;;
18793;SDS011;29610;49.022;12.114;2024-03-07T06:15:32;49.10;;;22.13;;
18793;SDS011;29610;49.022;12.114;2024-03-07T06:18:01;50.50;;;23.43;;
18793;SDS011;29610;49.022;12.114;2024-03-07T06:20:29;48.80;;;23.10;;
18793;SDS011;29610;49.022;12.114;2024-03-07T06:22:58;50.27;;;25.27;;
18793;SDS011;29610;49.022;12.114;2024-03-07T06:25:29;45.53;;;22.40;;
18793;SDS011;29610;49.022;12.114;2024-03-07T06:28:04;46.63;;;24.60;;
18793;SDS011;29610;49.022;12.114;2024-03-07T06:30:38;46.63;;;24.00;;
18793;SDS011;29610;49.022;12.114;2024-03-07T06:33:09;47.43;;;22.80;;
18793;SDS011;29610;49.022;12.114;2024-03-07T06:35:38;43.00;;;20.97;;
18793;SDS011;29610;49.022;12.114;2024-03-07T06:38:08;44.17;;;21.80;;
18793;SDS011;29610;49.022;12.114;2024-03-07T06:40:38;43.60;;;22.93;;
18793;SDS011;29610;49.022;12.114;2024-03-07T06:43:08;42.60;;;22.07;;
18793;SDS011;29610;49.022;12.114;2024-03-07T06:45:39;51.90;;;23.03;;
18793;SDS011;29610;49.022;12.114;2024-03-07T06:48:08;41.83;;;21.20;;
18793;SDS011;29610;49.022;12.114;2024-03-07T06:50:37;45.03;;;21.77;;
18793;SDS011;29610;49.022;12.114;2024-03-07T06:53:06;44.47;;;21.43;;
18793;SDS011;29610;49.022;12.114;2024-03-07T06:55:35;43.67;;;21.97;;
18793;SDS011;29610;49.022;12.114;2024-03-07T06:58:04;46.97;;;20.47;;
18793;SDS011;29610;49.022;12.114;2024-03-07T07:00:33;45.43;;;22.27;;
18793;SDS011;29610;49.022;12.114;2024-03-07T07:03:06;40.70;;;21.03;;
18793;SDS011;29610;49.022;12.114;2024-03-07T07:05:34;39.30;;;18.23;;
18793;SDS011;29610;49.022;12.114;2024-03-07T07:08:03;37.03;;;20.13;;
18793;SDS011;29610;49.022;12.114;2024-03-07T07:10:33;40.27;;;21.03;;
18793;SDS011;29610;49.022;12.114;2024-03-07T07:13:02;41.67;;;21.47;;
18793;SDS011;29610;49.022;12.114;2024-03-07T07:15:31;40.30;;;20.23;;
18793;SDS011;29610;49.022;12.114;2024-03-07T07:17:58;40.63;;;20.27;;
18793;SDS011;29610;49.022;12.114;2024-03-07T07:20:30;41.13;;;19.57;;
18793;SDS011;29610;49.022;12.114;2024-03-07T07:23:00;38.27;;;20.57;;
18793;SDS011;29610;49.022;12.114;2024-03-07T07:25:30;36.00;;;19.90;;
18793;SDS011;29610;49.022;12.114;2024-03-07T07:27:59;37.47;;;19.73;;
18793;SDS011;29610;49.022;12.114;2024-03-07T07:30:31;39.33;;;18.60;;
18793;SDS011;29610;49.022;12.114;2024-03-07T07:33:00;39.10;;;18.40;;
18793;SDS011;29610;49.022;12.114;2024-03-07T07:35:30;36.90;;;19.53;;
18793;SDS011;29610;49.022;12.114;2024-03-07T07:38:00;39.23;;;20.13;;
18793;SDS011;29610;49.022;12.114;2024-03-07T07:40:29;35.23;;;18.93;;
18793;SDS011;29610;49.022;12.114;2024-03-07T07:42:59;36.77;;;19.53;;
18793;SDS011;29610;49.022;12.114;2024-03-07T07:45:30;37.93;;;19.40;;
18793;SDS011;29610;49.022;12.114;2024-03-07T07:48:02;36.47;;;18.80;;
18793;SDS011;29610;49.022;12.114;2024-03-07T07:50:32;35.70;;;18.03;;
18793;SDS011;29610;49.022;12.114;2024-03-07T07:53:01;37.80;;;17.77;;
18793;SDS011;29610;49.022;12.114;2024-03-07T07:55:33;36.67;;;17.93;;
18793;SDS011;29610;49.022;12.114;2024-03-07T07:58:02;39.27;;;19.23;;
18793;SDS011;29610;49.022;12.114;2024-03-07T08:00:32;32.93;;;17.73;;
18793;SDS011;29610;49.022;12.114;2024-03-07T08:03:01;33.47;;;17.33;;
18793;SDS011;29610;49.022;12.114;2024-03-07T08:05:34;34.90;;;18.20;;
18793;SDS011;29610;49.022;12.114;2024-03-07T08:08:04;34.47;;;17.73;;
18793;SDS011;29610;49.022;12.114;2024-03-07T08:10:34;38.70;;;19.00;;
18793;SDS011;29610;49.022;12.114;2024-03-07T08:13:04;32.37;;;16.77;;
18793;SDS011;29610;49.022;12.114;2024-03-07T08:15:33;40.30;;;18.53;;
18793;SDS011;29610;49.022;12.114;2024-03-07T08:18:01;34.80;;;18.33;;
18793;SDS011;29610;49.022;12.114;2024-03-07T08:20:37;36.90;;;17.90;;
18793;SDS011;29610;49.022;12.114;2024-03-07T08:23:08;43.47;;;18.90;;
18793;SDS011;29610;49.022;12.114;2024-03-07T08:25:37;37.70;;;17.90;;
18793;SDS011;29610;49.022;12.114;2024-03-07T08:28:07;36.80;;;17.90;;
18793;SDS011;29610;49.022;12.114;2024-03-07T08:30:36;38.13;;;16.40;;
18793;SDS011;29610;49.022;12.114;2024-03-07T08:33:04;31.90;;;15.93;;
18793;SDS011;29610;49.022;12.114;2024-03-07T08:35:33;32.73;;;16.10;;
18793;SDS011;29610;49.022;12.114;2024-03-07T08:38:03;37.80;;;18.47;;
18793;SDS011;29610;49.022;12.114;2024-03-07T08:40:32;35.40;;;18.20;;
18793;SDS011;29610;49.022;12.114;2024-03-07T08:43:01;34.10;;;16.43;;
18793;SDS011;29610;49.022;12.114;2024-03-07T08:45:30;34.47;;;16.37;;
18793;SDS011;29610;49.022;12.114;2024-03-07T08:48:01;30.93;;;16.53;;
18793;SDS011;29610;49.022;12.114;2024-03-07T08:50:32;40.87;;;16.60;;
18793;SDS011;29610;49.022;12.114;2024-03-07T08:53:00;28.77;;;16.03;;
18793;SDS011;29610;49.022;12.114;2024-03-07T08:55:32;34.77;;;15.83;;
18793;SDS011;29610;49.022;12.114;2024-03-07T08:58:02;30.77;;;15.30;;
18793;SDS011;29610;49.022;12.114;2024-03-07T09:00:33;34.60;;;16.30;;
18793;SDS011;29610;49.022;12.114;2024-03-07T09:03:05;31.17;;;15.27;;
18793;SDS011;29610;49.022;12.114;2024-03-07T09:05:37;41.43;;;16.47;;
18793;SDS011;29610;49.022;12.114;2024-03-07T09:08:06;32.77;;;16.00;;
18793;SDS011;29610;49.022;12.114;2024-03-07T09:10:36;29.93;;;15.50;;
18793;SDS011;29610;49.022;12.114;2024-03-07T09:13:07;31.27;;;15.83;;
18793;SDS011;29610;49.022;12.114;2024-03-07T09:15:36;33.33;;;14.60;;
18793;SDS011;29610;49.022;12.114;2024-03-07T09:18:04;37.50;;;17.10;;
18793;SDS011;29610;49.022;12.114;2024-03-07T09:20:35;30.37;;;15.33;;
18793;SDS011;29610;49.022;12.114;2024-03-07T09:23:04;32.10;;;15.33;;
18793;SDS011;29610;49.022;12.114;2024-03-07T09:25:32;30.47;;;15.17;;
18793;SDS011;29610;49.022;12.114;2024-03-07T09:28:02;32.40;;;15.30;;
18793;SDS011;29610;49.022;12.114;2024-03-07T09:30:32;38.50;;;16.40;;
18793;SDS011;29610;49.022;12.114;2024-03-07T09:33:04;35.80;;;15.73;;
18793;SDS011;29610;49.022;12.114;2024-03-07T09:35:37;25.43;;;12.97;;
18793;SDS011;29610;49.022;12.114;2024-03-07T09:38:05;29.60;;;14.17;;
18793;SDS011;29610;49.022;12.114;2024-03-07T09:40:33;37.20;;;13.90;;
18793;SDS011;29610;49.022;12.114;2024-03-07T09:43:03;28.57;;;14.07;;
18793;SDS011;29610;49.022;12.114;2024-03-07T09:45:37;48.83;;;15.77;;
18793;SDS011;29610;49.022;12.114;2024-03-07T09:48:10;30.13;;;14.67;;
18793;SDS011;29610;49.022;12.114;2024-03-07T09:50:39;26.57;;;13.23;;
18793;SDS011;29610;49.022;12.114;2024-03-07T09:53:10;26.90;;;13.47;;
18793;SDS011;29610;49.022;12.114;2024-03-07T09:55:39;39.67;;;14.33;;
18793;SDS011;29610;49.022;12.114;2024-03-07T09:58:09;32.83;;;14.53;;
18793;SDS011;29610;49.022;12.114;2024-03-07T10:00:40;25.93;;;12.67;;
18793;SDS011;29610;49.022;12.114;2024-03-07T10:03:09;63.93;;;18.03;;
18793;SDS011;29610;49.022;12.114;2024-03-07T10:05:40;27.53;;;13.20;;
18793;SDS011;29610;49.022;12.114;2024-03-07T10:08:09;120.17;;;26.30;;
18793;SDS011;29610;49.022;12.114;2024-03-07T10:10:39;24.97;;;13.00;;
18793;SDS011;29610;49.022;12.114;2024-03-07T10:13:08;35.10;;;13.90;;
18793;SDS011;29610;49.022;12.114;2024-03-07T10:15:38;21.17;;;11.07;;
18793;SDS011;29610;49.022;12.114;2024-03-07T10:18:09;24.73;;;13.00;;
18793;SDS011;29610;49.022;12.114;2024-03-07T10:20:41;22.20;;;12.07;;
18793;SDS011;29610;49.022;12.114;2024-03-07T10:23:11;26.77;;;13.30;;
18793;SDS011;29610;49.022;12.114;2024-03-07T10:25:39;22.70;;;12.37;;
18793;SDS011;29610;49.022;12.114;2024-03-07T10:28:10;28.77;;;13.37;;
18793;SDS011;29610;49.022;12.114;2024-03-07T10:30:41;27.63;;;12.57;;
18793;SDS011;29610;49.022;12.114;2024-03-07T10:33:11;29.57;;;11.10;;
18793;SDS011;29610;49.022;12.114;2024-03-07T10:35:41;21.77;;;12.00;;
18793;SDS011;29610;49.022;12.114;2024-03-07T10:38:10;29.57;;;13.37;;
18793;SDS011;29610;49.022;12.114;2024-03-07T10:40:41;25.70;;;12.77;;
18793;SDS011;29610;49.022;12.114;2024-03-07T10:43:11;24.13;;;13.20;;
18793;SDS011;29610;49.022;12.114;2024-03-07T10:45:43;21.10;;;12.00;;
18793;SDS011;29610;49.022;12.114;2024-03-07T10:48:16;21.40;;;11.17;;
18793;SDS011;29610;49.022;12.114;2024-03-07T10:50:52;23.10;;;12.07;;
18793;SDS011;29610;49.022;12.114;2024-03-07T10:53:38;21.27;;;12.20;;
18793;SDS011;29610;49.022;12.114;2024-03-07T10:56:23;23.33;;;13.40;;
18793;SDS011;29610;49.022;12.114;2024-03-07T10:59:16;24.37;;;12.70;;
18793;SDS011;29610;49.022;12.114;2024-03-07T11:01:49;25.27;;;15.67;;
18793;SDS011;29610;49.022;12.114;2024-03-07T11:04:31;22.33;;;11.90;;
18793;SDS011;29610;49.022;12.114;2024-03-07T11:07:01;21.17;;;12.70;;
18793;SDS011;29610;49.022;12.114;2024-03-07T11:09:30;22.07;;;12.63;;
18793;SDS011;29610;49.022;12.114;2024-03-07T11:12:01;21.00;;;11.20;;
18793;SDS011;29610;49.022;12.114;2024-03-07T11:14:34;23.27;;;11.40;;
18793;SDS011;29610;49.022;12.114;2024-03-07T11:17:05;25.03;;;12.27;;
18793;SDS011;29610;49.022;12.114;2024-03-07T11:19:35;23.97;;;12.87;;
18793;SDS011;29610;49.022;12.114;2024-03-07T11:22:05;20.23;;;10.73;;
18793;SDS011;29610;49.022;12.114;2024-03-07T11:24:42;24.17;;;11.67;;
18793;SDS011;29610;49.022;12.114;2024-03-07T11:27:11;23.23;;;11.87;;
18793;SDS011;29610;49.022;12.114;2024-03-07T11:29:42;24.50;;;12.60;;
18793;SDS011;29610;49.022;12.114;2024-03-07T11:32:19;21.27;;;11.67;;
18793;SDS011;29610;49.022;12.114;2024-03-07T11:34:50;26.33;;;11.80;;
18793;SDS011;29610;49.022;12.114;2024-03-07T11:37:36;19.97;;;10.43;;
18793;SDS011;29610;49.022;12.114;2024-03-07T11:40:10;20.70;;;12.90;;
18793;SDS011;29610;49.022;12.114;2024-03-07T11:42:48;20.63;;;11.00;;
18793;SDS011;29610;49.022;12.114;2024-03-07T11:45:21;20.57;;;11.57;;
18793;SDS011;29610;49.022;12.114;2024-03-07T11:47:53;23.70;;;13.50;;
18793;SDS011;29610;49.022;12.114;2024-03-07T11:50:27;25.73;;;12.83;;
18793;SDS011;29610;49.022;12.114;2024-03-07T11:52:55;21.00;;;11.77;;
18793;SDS011;29610;49.022;12.114;2024-03-07T11:55:24;22.37;;;11.83;;
18793;SDS011;29610;49.022;12.114;2024-03-07T11:57:55;20.37;;;11.87;;
18793;SDS011;29610;49.022;12.114;2024-03-07T12:00:24;21.70;;;10.37;;
18793;SDS011;29610;49.022;12.114;2024-03-07T12:03:00;18.00;;;9.93;;
18793;SDS011;29610;49.022;12.114;2024-03-07T12:05:32;22.03;;;9.53;;
18793;SDS011;29610;49.022;12.114;2024-03-07T12:08:01;32.30;;;9.80;;
18793;SDS011;29610;49.022;12.114;2024-03-07T12:10:32;20.87;;;10.40;;
18793;SDS011;29610;49.022;12.114;2024-03-07T12:13:00;24.27;;;11.20;;
18793;SDS011;29610;49.022;12.114;2024-03-07T12:15:30;17.73;;;8.97;;
18793;SDS011;29610;49.022;12.114;2024-03-07T12:18:00;19.10;;;10.47;;
18793;SDS011;29610;49.022;12.114;2024-03-07T12:20:35;22.60;;;9.70;;
18793;SDS011;29610;49.022;12.114;2024-03-07T12:23:05;19.97;;;9.37;;
18793;SDS011;29610;49.022;12.114;2024-03-07T12:25:35;16.33;;;9.47;;
18793;SDS011;29610;49.022;12.114;2024-03-07T12:28:04;17.67;;;9.47;;
18793;SDS011;29610;49.022;12.114;2024-03-07T12:30:49;15.43;;;9.60;;
18793;SDS011;29610;49.022;12.114;2024-03-07T12:33:19;18.47;;;9.50;;
18793;SDS011;29610;49.022;12.114;2024-03-07T12:35:50;17.67;;;9.73;;
18793;SDS011;29610;49.022;12.114;2024-03-07T12:38:19;24.80;;;9.37;;
18793;SDS011;29610;49.022;12.114;2024-03-07T12:41:01;17.67;;;10.97;;
18793;SDS011;29610;49.022;12.114;2024-03-07T12:43:32;17.83;;;9.87;;
18793;SDS011;29610;49.022;12.114;2024-03-07T12:46:04;17.50;;;10.27;;
18793;SDS011;29610;49.022;12.114;2024-03-07T12:48:35;20.17;;;10.23;;
18793;SDS011;29610;49.022;12.114;2024-03-07T12:51:05;16.53;;;8.57;;
18793;SDS011;29610;49.022;12.114;2024-03-07T12:53:34;17.70;;;9.80;;
18793;SDS011;29610;49.022;12.114;2024-03-07T12:56:02;19.37;;;9.70;;
18793;SDS011;29610;49.022;12.114;2024-03-07T12:58:31;18.57;;;9.83;;
18793;SDS011;29610;49.022;12.114;2024-03-07T13:00:59;20.80;;;11.57;;
18793;SDS011;29610;49.022;12.114;2024-03-07T13:03:29;17.73;;;8.97;;
18793;SDS011;29610;49.022;12.114;2024-03-07T13:05:58;25.60;;;11.63;;
18793;SDS011;29610;49.022;12.114;2024-03-07T13:08:29;15.60;;;8.97;;
18793;SDS011;29610;49.022;12.114;2024-03-07T13:10:58;19.17;;;10.27;;
18793;SDS011;29610;49.022;12.114;2024-03-07T13:13:28;19.63;;;9.70;;
18793;SDS011;29610;49.022;12.114;2024-03-07T13:15:57;23.20;;;10.20;;
18793;SDS011;29610;49.022;12.114;2024-03-07T13:18:26;18.67;;;10.43;;
18793;SDS011;29610;49.022;12.114;2024-03-07T13:20:56;19.20;;;10.40;;
18793;SDS011;29610;49.022;12.114;2024-03-07T13:23:24;20.20;;;10.63;;
18793;SDS011;29610;49.022;12.114;2024-03-07T13:25:54;21.73;;;11.47;;
18793;SDS011;29610;49.022;12.114;2024-03-07T13:28:23;22.00;;;10.37;;
18793;SDS011;29610;49.022;12.114;2024-03-07T13:30:55;18.23;;;9.70;;
18793;SDS011;29610;49.022;12.114;2024-03-07T13:33:24;24.30;;;12.70;;
18793;SDS011;29610;49.022;12.114;2024-03-07T13:35:55;19.33;;;10.90;;
18793;SDS011;29610;49.022;12.114;2024-03-07T13:38:24;19.00;;;11.10;;
18793;SDS011;29610;49.022;12.114;2024-03-07T13:40:53;23.13;;;11.17;;
18793;SDS011;29610;49.022;12.114;2024-03-07T13:43:21;18.73;;;9.50;;
18793;SDS011;29610;49.022;12.114;2024-03-07T13:45:49;18.17;;;9.83;;
18793;SDS011;29610;49.022;12.114;2024-03-07T13:48:17;17.30;;;9.00;;
18793;SDS011;29610;49.022;12.114;2024-03-07T13:50:47;17.53;;;9.67;;
18793;SDS011;29610;49.022;12.114;2024-03-07T13:53:27;21.80;;;10.43;;
18793;SDS011;29610;49.022;12.114;2024-03-07T13:56:06;20.10;;;10.00;;
18793;SDS011;29610;49.022;12.114;2024-03-07T13:59:15;16.67;;;9.97;;
18793;SDS011;29610;49.022;12.114;2024-03-07T14:02:04;21.73;;;9.80;;
18793;SDS011;29610;49.022;12.114;2024-03-07T14:05:11;20.10;;;10.20;;
18793;SDS011;29610;49.022;12.114;2024-03-07T14:08:22;19.40;;;9.43;;
18793;SDS011;29610;49.022;12.114;2024-03-07T14:11:41;20.30;;;11.10;;
18793;SDS011;29610;49.022;12.114;2024-03-07T14:18:14;21.53;;;10.63;;
18793;SDS011;29610;49.022;12.114;2024-03-07T14:21:34;23.27;;;11.07;;
18793;SDS011;29610;49.022;12.114;2024-03-07T14:24:42;24.30;;;10.90;;
18793;SDS011;29610;49.022;12.114;2024-03-07T14:27:53;22.83;;;11.10;;
18793;SDS011;29610;49.022;12.114;2024-03-07T14:30:41;24.00;;;12.87;;
18793;SDS011;29610;49.022;12.114;2024-03-07T14:33:21;18.87;;;10.40;;
18793;SDS011;29610;49.022;12.114;2024-03-07T14:36:00;21.07;;;11.77;;
18793;SDS011;29610;49.022;12.114;2024-03-07T14:38:43;17.50;;;9.47;;